Allerton, Iowa
Current Conditions -  °F | °C
As of 6:55 PM on Wednesday 22 Oct 2014 (Local Time) from KCNC Reporting Station
Overcast Overcast  
Wind Chill: 59°   Ceiling: 4600
Heat Index: 59°   Visibility: 10mi
Dew Point: 46°   Wind: 8mph
Humidity: 63%   Direction: 140°SE
Pressure: 30.13"   Gusts: NA
Location:  40.71°N, 93.37°W
Report Text: KCNC 222355Z AUTO 14007KT 10SM SCT040 BKN046 OVC080 15/08 A3013 RMK AO2
Loading
Personal Weather Stations






























Interactive Weather Map
Tropical Storm Tracking
New forecast layout! Learn more

10-Day Weather Forecast

Advertisements
Track Severe Weather on mobile